Time;durP1;ratioP1;P1;durP2;ratioP2;P2;SDS_P1;SDS_P2;PMS_P1;PMS_P2;Temp;Humidity;BMP_temperature;BMP_pressure;BME280_temperature;BME280_humidity;BME280_pressure;Samples;Min_cycle;Max_cycle;Signal;HPM_P1;HPM_P2
2022/12/13 00:01:12;;;;;;;35.75;19.00;;;;;;;-0.09;96.14;97874.16;5003699;28;20034;-62
2022/12/13 00:03:39;;;;;;;34.92;18.85;;;;;;;-0.10;95.41;97889.59;5003938;28;20032;-61
2022/12/13 00:06:06;;;;;;;30.80;17.45;;;;;;;-0.08;96.35;97885.19;5006639;28;20574;-62
2022/12/13 00:08:31;;;;;;;34.08;18.35;;;;;;;-0.22;96.52;97883.47;4992066;28;20038;-66
2022/12/13 00:11:02;;;;;;;33.28;19.00;;;;;;;-0.15;96.44;97886.50;5000406;28;20036;-62
2022/12/13 00:13:28;;;;;;;29.80;17.70;;;;;;;-0.18;96.91;97902.00;4982404;28;20037;-61
2022/12/13 00:16:03;;;;;;;29.02;17.15;;;;;;;-0.23;97.60;97892.88;5003729;28;20385;-63
2022/12/13 00:18:29;;;;;;;32.67;18.50;;;;;;;-0.11;97.70;97886.22;4998029;28;20034;-62
2022/12/13 00:20:54;;;;;;;33.70;17.85;;;;;;;-0.21;98.05;97875.72;5022849;28;20485;-62
2022/12/13 00:23:20;;;;;;;30.27;17.52;;;;;;;-0.13;98.10;97875.25;4988846;28;20045;-63
2022/12/13 00:25:46;;;;;;;32.05;17.92;;;;;;;-0.11;98.86;97888.78;5017617;28;20021;-62
2022/12/13 00:28:12;;;;;;;31.30;17.73;;;;;;;-0.09;99.31;97884.38;4983122;28;20040;-61
2022/12/13 00:30:38;;;;;;;29.00;17.15;;;;;;;-0.20;98.15;97879.13;5019564;28;20026;-63
2022/12/13 00:33:05;;;;;;;32.40;18.45;;;;;;;-0.07;98.42;97887.66;4995626;28;20088;-63
2022/12/13 00:35:31;;;;;;;32.38;17.10;;;;;;;0.01;98.64;97887.19;4995248;28;20707;-62
2022/12/13 00:37:56;;;;;;;30.75;17.42;;;;;;;0.05;98.26;97883.50;5013343;28;20034;-62
2022/12/13 00:40:22;;;;;;;29.63;17.52;;;;;;;0.14;98.50;97887.22;4998263;28;20175;-62
2022/12/13 00:42:47;;;;;;;30.50;16.88;;;;;;;0.09;98.63;97889.25;5003533;28;20053;-62
2022/12/13 00:45:13;;;;;;;29.83;17.38;;;;;;;0.07;97.92;97874.00;4985233;28;20618;-61
2022/12/13 00:47:39;;;;;;;30.15;16.88;;;;;;;0.09;97.91;97884.97;5015086;28;20034;-62
2022/12/13 00:50:05;;;;;;;28.88;16.50;;;;;;;0.19;98.00;97873.22;4988485;28;20501;-62
2022/12/13 00:52:32;;;;;;;33.78;18.23;;;;;;;0.17;97.95;97872.50;4999610;28;20038;-62
2022/12/13 00:54:58;;;;;;;33.17;17.55;;;;;;;-0.08;98.32;97828.97;5018198;28;20026;-62
2022/12/13 00:57:23;;;;;;;27.48;16.80;;;;;;;0.13;98.77;97871.06;5001794;28;21145;-61
2022/12/13 00:59:50;;;;;;;32.05;16.98;;;;;;;-0.07;98.73;97828.88;4997708;28;20038;-61
2022/12/13 01:02:15;;;;;;;29.13;16.23;;;;;;;0.15;98.47;97868.41;4997825;28;20045;-62
2022/12/13 01:04:41;;;;;;;28.95;16.08;;;;;;;0.18;98.74;97876.72;4999483;28;20072;-64
2022/12/13 01:07:07;;;;;;;27.08;15.43;;;;;;;0.18;98.97;97873.31;5000033;28;20065;-62
2022/12/13 01:09:32;;;;;;;28.88;16.65;;;;;;;-0.08;98.12;97817.00;5015844;28;20438;-64
2022/12/13 01:12:01;;;;;;;27.05;14.38;;;;;;;0.29;98.21;97870.91;4997530;28;20041;-61
2022/12/13 01:14:27;;;;;;;20.05;12.02;;;;;;;0.14;98.33;97856.53;5000997;28;20061;-60
2022/12/13 01:16:55;;;;;;;20.10;11.50;;;;;;;-0.01;99.36;97827.66;4980371;28;20057;-62
2022/12/13 01:19:22;;;;;;;19.55;11.02;;;;;;;0.21;99.09;97857.78;4992690;28;20693;-61
2022/12/13 01:21:47;;;;;;;17.92;11.10;;;;;;;0.27;99.27;97859.13;5000007;28;20121;-63
2022/12/13 01:24:14;;;;;;;19.52;11.45;;;;;;;0.06;98.61;97817.88;5000126;28;20120;-62
2022/12/13 01:26:39;;;;;;;22.77;12.10;;;;;;;0.36;99.61;97858.53;5016970;28;20517;-61
2022/12/13 01:29:05;;;;;;;18.00;10.80;;;;;;;0.47;98.74;97860.41;4995988;28;20052;-61
2022/12/13 01:31:30;;;;;;;23.95;11.90;;;;;;;0.48;98.26;97859.50;5017903;28;20172;-63
2022/12/13 01:33:55;;;;;;;18.85;10.40;;;;;;;0.53;98.25;97852.31;4999710;28;20645;-62
2022/12/13 01:36:22;;;;;;;20.40;11.35;;;;;;;0.52;97.28;97846.38;4981290;28;20117;-62
2022/12/13 01:38:47;;;;;;;19.00;11.55;;;;;;;0.53;97.07;97860.84;4996660;28;20149;-63
2022/12/13 01:41:15;;;;;;;19.02;10.73;;;;;;;0.22;97.95;97797.25;4999362;28;20034;-62
2022/12/13 01:43:40;;;;;;;20.00;11.05;;;;;;;0.27;97.67;97811.34;5017232;28;20141;-64
2022/12/13 01:46:06;;;;;;;20.20;11.57;;;;;;;0.51;97.88;97855.00;4996806;28;20113;-61
2022/12/13 01:48:42;;;;;;;21.13;11.18;;;;;;;0.50;97.54;97847.41;5000976;28;20112;-62
2022/12/13 01:51:10;;;;;;;20.75;11.38;;;;;;;0.46;98.07;97844.25;4995535;28;20034;-63
2022/12/13 01:53:38;;;;;;;20.85;11.32;;;;;;;0.52;97.54;97858.38;4998445;28;20057;-61
2022/12/13 01:56:07;;;;;;;18.92;11.05;;;;;;;0.47;96.93;97852.72;4999266;28;20037;-63
2022/12/13 01:58:33;;;;;;;;;;;;;;;0.66;95.32;97858.28;5001295;28;20029;-63
2022/12/13 02:00:59;;;;;;;18.60;9.65;;;;;;;0.62;94.68;97856.84;5007297;28;19939;-62
2022/12/13 02:03:24;;;;;;;20.02;11.43;;;;;;;0.60;94.25;97848.44;4987222;28;20788;-62
2022/12/13 02:06:17;;;;;;;20.27;10.50;;;;;;;0.53;94.91;97852.31;4983030;28;20531;-64
2022/12/13 02:08:43;;;;;;;20.95;11.07;;;;;;;0.52;93.93;97848.13;4997231;28;20040;-62
2022/12/13 02:11:10;;;;;;;19.48;11.65;;;;;;;0.28;93.63;97807.09;4980405;28;20022;-61
2022/12/13 02:13:35;;;;;;;17.27;9.55;;;;;;;0.53;94.24;97842.09;5000485;28;20267;-60
2022/12/13 02:16:10;;;;;;;19.52;10.88;;;;;;;0.31;93.85;97810.25;4985541;28;20045;-60
2022/12/13 02:18:54;;;;;;;18.30;10.63;;;;;;;0.53;93.45;97837.81;4995918;28;20038;-60
2022/12/13 02:21:25;;;;;;;17.75;10.48;;;;;;;0.61;91.98;97842.41;5012508;28;20132;-61
2022/12/13 02:24:03;;;;;;;19.30;10.32;;;;;;;0.58;92.46;97842.59;5004350;28;20451;-61
2022/12/13 02:26:41;;;;;;;20.13;10.70;;;;;;;0.58;93.20;97842.59;5001325;28;20234;-62
2022/12/13 02:29:31;;;;;;;17.02;9.43;;;;;;;0.72;91.64;97845.06;5018646;28;20036;-63
2022/12/13 02:32:20;;;;;;;16.25;9.95;;;;;;;0.43;90.33;97795.03;5004152;28;20033;-62
2022/12/13 02:35:00;;;;;;;21.95;10.48;;;;;;;0.33;90.07;97787.97;5003163;28;20030;-63
2022/12/13 02:37:44;;;;;;;21.35;9.75;;;;;;;0.73;89.26;97839.06;4995676;28;20097;-62
2022/12/13 02:40:16;;;;;;;16.90;9.38;;;;;;;0.64;89.67;97838.81;5003589;28;20037;-62
2022/12/13 02:42:49;;;;;;;22.65;11.23;;;;;;;0.70;89.36;97834.13;4999789;28;20030;-63
2022/12/13 02:45:23;;;;;;;21.27;11.18;;;;;;;0.55;89.01;97823.19;4997738;28;20045;-62
2022/12/13 02:47:51;;;;;;;20.40;10.32;;;;;;;0.57;88.72;97836.69;5001408;28;20029;-62
2022/12/13 02:50:17;;;;;;;16.23;9.43;;;;;;;0.64;87.24;97841.38;5015318;28;20034;-64
2022/12/13 02:52:45;;;;;;;18.48;10.25;;;;;;;0.62;87.81;97846.63;4985297;28;20032;-62
2022/12/13 02:55:12;;;;;;;17.58;9.88;;;;;;;0.54;86.95;97813.03;5005125;28;20171;-63
2022/12/13 02:57:40;;;;;;;17.10;9.70;;;;;;;0.65;87.54;97840.47;4982894;28;20037;-62
2022/12/13 03:00:13;;;;;;;18.65;10.18;;;;;;;0.66;87.45;97837.81;4985008;28;20065;-62
2022/12/13 03:03:14;;;;;;;17.25;10.35;;;;;;;0.61;87.40;97841.59;4985569;28;20029;-63
2022/12/13 03:09:19;;;;;;;19.13;10.48;;;;;;;0.65;87.01;97835.34;4998988;28;20488;-65
2022/12/13 03:14:55;;;;;;;16.27;9.57;;;;;;;0.67;86.16;97829.22;5013751;28;20916;-64
2022/12/13 03:17:22;;;;;;;17.30;9.88;;;;;;;0.63;85.76;97824.41;4976797;28;20057;-62
2022/12/13 03:19:53;;;;;;;15.52;8.50;;;;;;;0.63;85.42;97815.00;4997639;28;20037;-61
2022/12/13 03:22:18;;;;;;;16.73;9.70;;;;;;;0.57;85.26;97816.22;5012800;28;20125;-64
2022/12/13 03:24:44;;;;;;;18.00;10.25;;;;;;;0.31;85.50;97766.78;4997332;28;20117;-62
2022/12/13 03:27:10;;;;;;;16.63;9.95;;;;;;;0.23;85.43;97750.31;4998097;28;20034;-63
2022/12/13 03:29:36;;;;;;;15.68;9.82;;;;;;;0.63;85.88;97816.72;5018096;28;20108;-62
2022/12/13 03:32:02;;;;;;;16.63;9.30;;;;;;;0.71;85.95;97817.03;4980241;28;20500;-62
2022/12/13 03:34:27;;;;;;;16.55;10.15;;;;;;;0.71;84.60;97817.03;5021850;28;20025;-61
2022/12/13 03:36:53;;;;;;;13.90;8.20;;;;;;;0.66;83.70;97804.56;4999363;28;20037;-62
2022/12/13 03:39:19;;;;;;;18.38;9.52;;;;;;;0.60;83.60;97810.06;5017633;28;20026;-62
2022/12/13 03:41:44;;;;;;;16.20;9.60;;;;;;;0.68;82.90;97807.03;4985628;28;20151;-62
2022/12/13 03:44:10;;;;;;;22.20;10.52;;;;;;;0.65;82.75;97805.47;5004657;28;20081;-62
2022/12/13 03:46:35;;;;;;;17.05;9.43;;;;;;;0.66;82.59;97803.75;5012164;28;20469;-63
2022/12/13 03:49:01;;;;;;;19.10;10.20;;;;;;;0.68;81.47;97812.94;5018683;28;20034;-61
2022/12/13 03:51:26;;;;;;;18.92;10.32;;;;;;;0.65;82.37;97814.88;5004121;28;20046;-62
2022/12/13 03:53:52;;;;;;;18.77;10.30;;;;;;;0.71;81.87;97817.88;4999758;28;20645;-66
2022/12/13 03:56:17;;;;;;;19.15;10.18;;;;;;;0.41;81.66;97763.63;5001946;28;20053;-62
2022/12/13 03:58:42;;;;;;;19.67;8.95;;;;;;;0.35;81.54;97754.63;4985953;28;20045;-64
2022/12/13 04:01:10;;;;;;;17.85;8.93;;;;;;;0.76;81.67;97812.44;5004297;28;20709;-61
2022/12/13 04:03:37;;;;;;;15.85;8.95;;;;;;;0.85;81.20;97814.38;4998307;28;20033;-61
2022/12/13 04:06:03;;;;;;;19.90;9.40;;;;;;;0.48;80.83;97746.94;4987232;28;20037;-62
2022/12/13 04:08:29;;;;;;;18.05;9.52;;;;;;;0.84;80.97;97807.63;4998782;28;20029;-62
2022/12/13 04:10:54;;;;;;;15.88;9.07;;;;;;;0.87;80.11;97801.47;4984778;28;20040;-58
2022/12/13 04:13:32;;;;;;;17.38;9.82;;;;;;;0.76;80.15;97794.50;5000749;28;20026;-64
2022/12/13 04:15:57;;;;;;;16.15;8.52;;;;;;;0.79;79.68;97801.19;5002113;28;20077;-62
2022/12/13 04:18:23;;;;;;;16.55;9.07;;;;;;;0.84;79.14;97782.03;5017919;28;20799;-62
2022/12/13 04:20:48;;;;;;;16.92;9.75;;;;;;;0.81;80.72;97801.91;5000807;28;20448;-62
2022/12/13 04:23:14;;;;;;;13.57;7.93;;;;;;;0.86;80.29;97797.25;4988035;28;20029;-61
2022/12/13 04:25:40;;;;;;;15.32;8.48;;;;;;;0.85;80.13;97796.44;4999742;28;20435;-61
2022/12/13 04:28:06;;;;;;;18.13;9.13;;;;;;;0.86;80.68;97798.09;5000239;28;20040;-61
2022/12/13 04:30:33;;;;;;;19.17;9.27;;;;;;;0.88;79.47;97798.81;5003249;28;20041;-63
2022/12/13 04:32:58;;;;;;;14.52;7.85;;;;;;;0.87;78.44;97792.03;5018196;28;20378;-62
2022/12/13 04:35:24;;;;;;;15.73;8.57;;;;;;;0.98;77.15;97793.88;5017658;28;20047;-62
2022/12/13 04:37:49;;;;;;;14.38;7.47;;;;;;;0.55;77.69;97743.06;5000960;28;20034;-61
2022/12/13 04:40:15;;;;;;;12.13;7.03;;;;;;;0.87;76.90;97799.72;5002406;28;20084;-62
2022/12/13 04:42:40;;;;;;;17.58;7.22;;;;;;;0.91;77.57;97796.06;4996301;28;20033;-61
2022/12/13 04:45:06;;;;;;;16.60;8.30;;;;;;;0.95;76.86;97794.09;4997892;28;20042;-61
2022/12/13 04:47:32;;;;;;;16.25;8.02;;;;;;;0.91;77.36;97800.34;5000957;28;20033;-62
2022/12/13 04:49:58;;;;;;;14.15;7.43;;;;;;;1.01;75.91;97803.91;5001358;28;20091;-62
2022/12/13 04:52:23;;;;;;;13.57;6.82;;;;;;;1.01;77.48;97814.16;4983729;28;20633;-61
2022/12/13 04:54:49;;;;;;;12.90;7.00;;;;;;;0.97;78.98;97782.03;5013477;28;20037;-62
2022/12/13 04:57:14;;;;;;;16.55;7.68;;;;;;;1.00;79.17;97792.03;4979105;28;20449;-60
2022/12/13 04:59:40;;;;;;;15.45;7.97;;;;;;;0.99;79.93;97787.84;5015909;28;20057;-61
2022/12/13 05:02:07;;;;;;;16.73;8.70;;;;;;;0.99;80.13;97784.47;5015550;28;20106;-62
2022/12/13 05:04:33;;;;;;;16.35;8.80;;;;;;;0.96;80.16;97782.94;5002640;28;20107;-60
2022/12/13 05:06:59;;;;;;;16.27;8.60;;;;;;;1.07;81.50;97785.56;5003181;28;20017;-63
2022/12/13 05:09:25;;;;;;;13.02;7.57;;;;;;;1.01;80.90;97785.19;4998441;28;20030;-60
2022/12/13 05:11:50;;;;;;;16.17;8.20;;;;;;;1.00;81.04;97789.47;4998258;28;20041;-62
2022/12/13 05:14:16;;;;;;;16.55;9.20;;;;;;;0.99;79.31;97787.84;4999607;28;20090;-61
2022/12/13 05:16:41;;;;;;;15.15;8.30;;;;;;;0.90;79.77;97791.84;4984945;28;20029;-63
2022/12/13 05:19:07;;;;;;;22.08;8.65;;;;;;;0.89;78.68;97790.19;4999939;28;20140;-61
2022/12/13 05:21:33;;;;;;;14.20;8.02;;;;;;;0.91;78.65;97787.53;5016194;28;20113;-61
2022/12/13 05:24:02;;;;;;;14.75;8.48;;;;;;;0.80;78.06;97775.47;5001974;28;20507;-63
2022/12/13 05:26:28;;;;;;;16.08;8.27;;;;;;;0.77;78.00;97770.56;4995535;28;20072;-60
2022/12/13 05:28:57;;;;;;;13.82;7.63;;;;;;;0.81;79.16;97778.88;4977167;28;20175;-62
2022/12/13 05:31:22;;;;;;;19.52;10.13;;;;;;;0.51;78.83;97729.66;4988294;28;20607;-61
2022/12/13 05:33:48;;;;;;;17.58;8.90;;;;;;;0.76;78.91;97777.41;4994828;28;20030;-61
2022/12/13 05:36:13;;;;;;;19.30;9.73;;;;;;;0.82;78.18;97781.31;4981318;28;20124;-61
2022/12/13 05:38:39;;;;;;;14.43;7.25;;;;;;;0.83;77.97;97775.25;4989096;28;20105;-60
2022/12/13 05:41:05;;;;;;;14.57;8.10;;;;;;;0.81;77.84;97787.34;5002310;28;20380;-61
2022/12/13 05:43:30;;;;;;;13.48;6.78;;;;;;;0.91;76.01;97773.03;5013959;28;20615;-62
2022/12/13 05:45:56;;;;;;;15.43;8.02;;;;;;;0.99;76.34;97774.25;4995834;28;20034;-61
2022/12/13 05:48:22;;;;;;;14.43;7.40;;;;;;;0.85;76.38;97752.94;4978824;28;20042;-62
2022/12/13 05:50:47;;;;;;;12.13;7.40;;;;;;;0.97;76.54;97771.78;4995281;28;20679;-61
2022/12/13 05:53:14;;;;;;;12.35;7.40;;;;;;;1.02;75.82;97768.88;5001673;28;20710;-62
2022/12/13 05:55:40;;;;;;;12.80;7.30;;;;;;;0.98;76.35;97775.16;5000217;28;20087;-63
2022/12/13 05:58:05;;;;;;;12.82;7.60;;;;;;;0.89;78.36;97758.66;4998878;28;20038;-62
2022/12/13 06:00:31;;;;;;;13.38;6.85;;;;;;;0.75;76.98;97723.81;4996736;28;20072;-63
2022/12/13 06:02:57;;;;;;;15.20;6.70;;;;;;;1.06;76.25;97762.63;5014387;28;20034;-63
2022/12/13 06:05:23;;;;;;;13.32;6.72;;;;;;;1.07;76.18;97770.19;4982405;28;20022;-61
2022/12/13 06:07:48;;;;;;;14.65;7.75;;;;;;;1.11;78.04;97773.38;4997533;28;20045;-62
2022/12/13 06:10:14;;;;;;;12.45;7.95;;;;;;;1.16;81.16;97771.31;4986807;28;20037;-61
2022/12/13 06:12:40;;;;;;;11.63;7.40;;;;;;;1.19;79.50;97767.72;4998064;28;20038;-62
2022/12/13 06:15:06;;;;;;;14.00;6.95;;;;;;;1.07;77.72;97767.66;4999468;28;20501;-67
2022/12/13 06:17:36;;;;;;;15.57;7.43;;;;;;;1.00;79.13;97771.53;5016673;28;20041;-61
2022/12/13 06:20:03;;;;;;;15.15;8.27;;;;;;;0.73;79.09;97717.94;5017311;28;20575;-62
2022/12/13 06:22:28;;;;;;;13.32;7.18;;;;;;;1.01;78.72;97772.38;4995352;28;20105;-61
2022/12/13 06:24:54;;;;;;;13.07;7.55;;;;;;;0.96;78.69;97765.00;5016998;28;20125;-60
2022/12/13 06:27:20;;;;;;;12.18;6.50;;;;;;;0.95;77.87;97768.50;4976419;28;20038;-61
2022/12/13 06:29:45;;;;;;;13.90;7.07;;;;;;;0.94;78.03;97766.84;5017158;28;20168;-63
2022/12/13 06:32:11;;;;;;;14.13;7.38;;;;;;;0.95;77.40;97774.44;4994676;28;20057;-62
2022/12/13 06:34:36;;;;;;;11.70;6.78;;;;;;;0.98;76.84;97777.72;5006733;28;20101;-61
2022/12/13 06:37:04;;;;;;;9.48;5.65;;;;;;;0.96;77.40;97770.94;5013678;28;20483;-61
2022/12/13 06:39:30;;;;;;;15.65;7.20;;;;;;;0.90;77.13;97766.25;5004133;28;20033;-62
2022/12/13 06:41:55;;;;;;;13.57;7.35;;;;;;;0.93;76.69;97770.31;4988168;28;20033;-61
2022/12/13 06:44:21;;;;;;;13.80;6.90;;;;;;;0.92;76.94;97768.72;5005790;28;20087;-61
2022/12/13 06:46:46;;;;;;;12.32;7.45;;;;;;;0.88;76.46;97760.41;4999791;28;20049;-61
2022/12/13 06:49:11;;;;;;;12.07;6.63;;;;;;;0.91;76.71;97774.75;5008968;28;20280;-63
2022/12/13 06:51:37;;;;;;;13.02;6.70;;;;;;;0.87;76.59;97770.75;4993659;28;20022;-61
2022/12/13 06:54:02;;;;;;;14.70;6.72;;;;;;;0.91;76.10;97778.13;4999544;28;20521;-61
2022/12/13 06:56:29;;;;;;;12.70;7.25;;;;;;;0.92;75.59;97771.28;4999743;28;20060;-62
2022/12/13 06:58:55;;;;;;;12.68;7.60;;;;;;;0.64;75.17;97731.38;5001181;28;20117;-63
2022/12/13 07:01:20;;;;;;;12.95;7.13;;;;;;;0.92;74.75;97772.06;5018921;28;20034;-61
2022/12/13 07:03:45;;;;;;;11.30;5.93;;;;;;;0.61;74.09;97722.16;4984266;28;20022;-61
2022/12/13 07:06:16;;;;;;;14.10;6.93;;;;;;;0.94;74.48;97777.91;4999878;28;20553;-61
2022/12/13 07:08:43;;;;;;;10.57;6.05;;;;;;;0.99;73.74;97781.91;5004221;28;20034;-61
2022/12/13 07:11:14;;;;;;;12.70;7.18;;;;;;;0.91;75.19;97772.19;5007168;28;20540;-62
2022/12/13 07:13:40;;;;;;;15.73;8.00;;;;;;;0.44;75.61;97713.09;4994294;28;20034;-61
2022/12/13 07:16:06;;;;;;;12.75;5.95;;;;;;;0.94;74.68;97792.47;5002868;28;20163;-61
2022/12/13 07:18:31;;;;;;;14.18;6.53;;;;;;;0.99;73.16;97776.81;5006313;28;20033;-61
2022/12/13 07:20:57;;;;;;;11.00;5.93;;;;;;;0.98;72.38;97788.75;5006094;28;20046;-61
2022/12/13 07:23:22;;;;;;;9.77;5.40;;;;;;;1.01;72.54;97793.69;5016119;28;20033;-61
2022/12/13 07:25:54;;;;;;;12.27;6.70;;;;;;;0.99;71.97;97790.41;5008284;28;20101;-61
2022/12/13 07:28:20;;;;;;;11.32;5.57;;;;;;;1.05;71.89;97800.22;5001362;28;20026;-61
2022/12/13 07:30:46;;;;;;;10.73;5.93;;;;;;;1.15;71.36;97805.56;5020466;28;20037;-61
2022/12/13 07:33:12;;;;;;;9.30;4.97;;;;;;;1.13;71.06;97810.78;5002790;28;20033;-61
2022/12/13 07:35:37;;;;;;;13.30;6.00;;;;;;;1.09;71.72;97800.81;4987023;28;20794;-63
2022/12/13 07:38:04;;;;;;;9.50;5.30;;;;;;;1.18;71.36;97805.31;5000480;28;20041;-61
2022/12/13 07:40:30;;;;;;;13.52;6.43;;;;;;;1.14;71.11;97806.47;5016688;28;20217;-61
2022/12/13 07:42:56;;;;;;;12.65;6.30;;;;;;;1.20;70.82;97807.78;4998915;28;20563;-61
2022/12/13 07:45:22;;;;;;;14.18;6.50;;;;;;;1.03;70.53;97785.91;5019356;28;20103;-62
2022/12/13 07:47:47;;;;;;;12.52;6.13;;;;;;;1.20;71.76;97803.47;5020482;28;20108;-61
2022/12/13 07:50:14;;;;;;;12.18;5.95;;;;;;;1.17;71.61;97803.69;5004589;28;20099;-62
2022/12/13 07:52:39;;;;;;;9.80;5.90;;;;;;;1.18;72.17;97809.63;5006527;28;20496;-61
2022/12/13 07:55:06;;;;;;;11.25;5.68;;;;;;;0.71;71.26;97722.34;4980777;28;20033;-61
2022/12/13 07:57:32;;;;;;;10.32;5.75;;;;;;;1.27;71.54;97806.44;4985215;28;20022;-60
2022/12/13 07:59:57;;;;;;;11.50;6.15;;;;;;;1.26;72.33;97804.78;4982679;28;20088;-62
2022/12/13 08:02:23;;;;;;;15.27;7.45;;;;;;;1.22;73.21;97796.50;5007430;28;20022;-63
2022/12/13 08:04:49;;;;;;;13.60;6.90;;;;;;;1.26;72.41;97808.19;5006291;28;20561;-63
2022/12/13 08:07:14;;;;;;;10.98;5.78;;;;;;;1.27;72.18;97822.63;5001651;28;20038;-61
2022/12/13 08:09:39;;;;;;;12.63;6.32;;;;;;;1.28;71.73;97815.78;5004833;28;20806;-60
2022/12/13 08:12:05;;;;;;;12.60;6.50;;;;;;;1.23;71.18;97816.06;5019734;28;20065;-63
2022/12/13 08:14:31;;;;;;;10.27;5.43;;;;;;;1.32;71.15;97810.31;4984637;28;20049;-62
2022/12/13 08:16:56;;;;;;;11.25;6.03;;;;;;;1.35;70.59;97806.72;5003516;28;20064;-60
2022/12/13 08:19:22;;;;;;;13.43;5.55;;;;;;;1.08;69.99;97759.06;4971209;28;20029;-61
2022/12/13 08:21:50;;;;;;;9.48;4.88;;;;;;;1.37;69.42;97796.34;4998269;28;21175;-61
2022/12/13 08:24:15;;;;;;;12.63;5.65;;;;;;;1.39;69.17;97812.44;4995268;28;20029;-62
2022/12/13 08:26:40;;;;;;;11.10;5.40;;;;;;;1.42;68.89;97814.78;4973236;28;20040;-60
2022/12/13 08:29:06;;;;;;;12.52;6.30;;;;;;;1.44;68.66;97805.25;5009348;28;20751;-60
2022/12/13 08:31:31;;;;;;;13.48;6.45;;;;;;;1.42;69.13;97799.44;4996140;28;20386;-63
2022/12/13 08:33:57;;;;;;;11.80;6.20;;;;;;;1.50;69.91;97815.91;4984404;28;20120;-61
2022/12/13 08:36:25;;;;;;;10.77;5.82;;;;;;;1.32;68.51;97776.19;4993673;28;20043;-61
2022/12/13 08:38:54;;;;;;;10.63;5.68;;;;;;;1.56;68.91;97806.16;4997377;28;20033;-61
2022/12/13 08:41:19;;;;;;;11.70;6.30;;;;;;;1.55;68.94;97810.44;4989937;28;20088;-63
2022/12/13 08:43:45;;;;;;;10.45;5.50;;;;;;;1.56;69.31;97824.09;4996202;28;20041;-61
2022/12/13 08:46:11;;;;;;;12.88;6.25;;;;;;;1.60;68.62;97828.88;5011180;28;20037;-62
2022/12/13 08:48:36;;;;;;;11.20;6.05;;;;;;;1.68;68.75;97833.47;4993702;28;20045;-61
2022/12/13 08:51:06;;;;;;;12.48;6.75;;;;;;;1.74;69.53;97835.63;4986259;28;20049;-61
2022/12/13 08:53:32;;;;;;;11.20;6.35;;;;;;;1.50;69.65;97805.66;4994061;28;20061;-61
2022/12/13 08:56:01;;;;;;;11.35;6.40;;;;;;;1.73;68.91;97841.66;5011766;28;20048;-60
2022/12/13 08:58:27;;;;;;;;;;;;;;;1.72;69.50;97840.84;5012303;28;20038;-61
2022/12/13 09:00:52;;;;;;;14.00;6.65;;;;;;;1.76;68.78;97845.75;4994091;28;19920;-62
2022/12/13 09:03:18;;;;;;;14.63;6.43;;;;;;;1.80;69.25;97836.91;4987520;28;20629;-61
2022/12/13 09:05:44;;;;;;;12.15;5.95;;;;;;;1.83;69.80;97842.66;4996135;28;20875;-61
2022/12/13 09:08:09;;;;;;;13.43;4.93;;;;;;;1.88;68.37;97850.84;4989475;28;20070;-62
2022/12/13 09:10:34;;;;;;;15.48;8.05;;;;;;;1.77;68.32;97845.66;4992358;28;20037;-60
2022/12/13 09:13:00;;;;;;;14.60;6.78;;;;;;;1.90;67.70;97846.41;4994444;28;20029;-62
2022/12/13 09:15:27;;;;;;;10.98;5.80;;;;;;;1.84;67.61;97846.03;4994156;28;20556;-61
2022/12/13 09:17:53;;;;;;;12.68;5.35;;;;;;;1.94;67.66;97848.78;4991930;28;20033;-61
2022/12/13 09:20:18;;;;;;;14.23;6.97;;;;;;;1.90;67.72;97848.97;4994720;28;20071;-61
2022/12/13 09:22:45;;;;;;;11.50;6.03;;;;;;;1.85;65.76;97847.69;4993437;28;20489;-61
2022/12/13 09:25:11;;;;;;;15.05;6.72;;;;;;;1.65;65.65;97818.31;4985327;28;20021;-61
2022/12/13 09:27:36;;;;;;;11.88;6.28;;;;;;;1.66;65.84;97819.94;5009452;28;20037;-61
2022/12/13 09:30:02;;;;;;;18.02;8.60;;;;;;;1.99;66.07;97865.47;4992804;28;20022;-61
2022/12/13 09:32:27;;;;;;;13.80;6.57;;;;;;;2.03;66.47;97860.94;4993239;28;20069;-61
2022/12/13 09:34:53;;;;;;;14.48;6.18;;;;;;;2.10;65.67;97859.56;5009479;28;20069;-62
2022/12/13 09:37:19;;;;;;;15.05;7.63;;;;;;;2.05;66.57;97853.94;4993242;28;20028;-62
2022/12/13 09:39:46;;;;;;;12.73;6.15;;;;;;;2.11;65.74;97858.63;4968502;28;20022;-62
2022/12/13 09:42:22;;;;;;;10.50;5.32;;;;;;;2.20;65.38;97862.28;4990185;28;20254;-61
2022/12/13 09:44:53;;;;;;;11.15;5.90;;;;;;;2.15;65.16;97866.94;4993286;28;20044;-61
2022/12/13 09:47:39;;;;;;;12.93;6.22;;;;;;;2.14;65.07;97863.56;4990892;28;20036;-62
2022/12/13 09:50:10;;;;;;;10.18;5.53;;;;;;;2.21;65.70;97854.50;4969137;28;20559;-62
2022/12/13 09:52:38;;;;;;;12.52;5.32;;;;;;;2.20;65.34;97852.03;4991766;28;20022;-61
2022/12/13 09:55:17;;;;;;;11.48;5.28;;;;;;;2.25;64.77;97848.19;5009283;28;20380;-62
2022/12/13 09:57:43;;;;;;;12.80;5.72;;;;;;;2.21;62.72;97849.34;4994336;28;20229;-62
2022/12/13 10:00:15;;;;;;;9.30;4.88;;;;;;;2.16;62.14;97843.75;4991735;28;20676;-61
2022/12/13 10:03:01;;;;;;;10.00;5.18;;;;;;;2.26;62.27;97849.00;4983986;28;20229;-62
2022/12/13 10:05:28;;;;;;;10.35;5.05;;;;;;;2.28;62.20;97845.41;4966746;28;20650;-61
2022/12/13 10:07:57;;;;;;;9.55;5.25;;;;;;;2.20;62.31;97842.56;4992633;28;20084;-63
2022/12/13 10:10:23;;;;;;;9.03;4.80;;;;;;;2.04;61.33;97806.94;4991156;28;20084;-62
2022/12/13 10:13:02;;;;;;;8.82;4.68;;;;;;;2.13;60.84;97836.25;4991932;28;20033;-61
2022/12/13 10:15:29;;;;;;;10.02;4.40;;;;;;;2.22;60.46;97834.78;4990624;28;20037;-63
2022/12/13 10:17:55;;;;;;;8.88;5.00;;;;;;;1.94;61.06;97784.69;4990388;28;20910;-61
2022/12/13 10:20:21;;;;;;;10.13;4.75;;;;;;;2.02;61.64;97778.03;4983159;28;20026;-61
2022/12/13 10:22:47;;;;;;;10.00;4.68;;;;;;;2.34;61.33;97815.09;4982195;28;20041;-62
2022/12/13 10:25:12;;;;;;;9.18;4.40;;;;;;;2.37;61.25;97810.56;4990705;28;20099;-62
2022/12/13 10:27:45;;;;;;;7.85;4.07;;;;;;;2.57;59.95;97819.34;5004631;28;20194;-63
2022/12/13 10:30:14;;;;;;;8.85;5.03;;;;;;;2.54;59.27;97826.47;4991790;28;20114;-63
2022/12/13 10:32:52;;;;;;;8.07;4.47;;;;;;;2.52;59.81;97829.16;4991085;28;20053;-62
2022/12/13 10:35:33;;;;;;;9.07;4.07;;;;;;;2.22;60.20;97779.16;4990817;28;20109;-61
2022/12/13 10:38:21;;;;;;;8.52;4.50;;;;;;;2.54;61.05;97821.31;5004808;28;20030;-61
2022/12/13 10:40:49;;;;;;;8.77;4.45;;;;;;;2.58;61.12;97817.63;4976251;28;20030;-64
2022/12/13 10:43:19;;;;;;;8.68;4.45;;;;;;;2.62;61.12;97814.69;4991382;28;20682;-62
2022/12/13 10:46:14;;;;;;;9.93;4.95;;;;;;;2.63;61.75;97821.47;4990620;28;20125;-63
2022/12/13 10:48:47;;;;;;;11.07;4.88;;;;;;;2.71;60.42;97830.38;4990902;28;20033;-60
2022/12/13 10:51:16;;;;;;;7.63;4.38;;;;;;;2.72;60.12;97825.13;4991930;28;20125;-64
2022/12/13 10:53:48;;;;;;;8.25;4.15;;;;;;;2.80;60.13;97819.41;4967888;28;20129;-63
2022/12/13 10:56:18;;;;;;;8.02;4.35;;;;;;;2.58;59.42;97794.53;4985993;28;20026;-64
2022/12/13 10:58:46;;;;;;;10.07;5.13;;;;;;;2.47;59.86;97775.59;4991809;28;20033;-62
2022/12/13 11:01:17;;;;;;;11.30;5.35;;;;;;;2.73;59.97;97813.91;4991723;28;20084;-64
2022/12/13 11:03:55;;;;;;;9.65;5.13;;;;;;;2.72;60.04;97814.00;5012309;28;20614;-63
2022/12/13 11:06:21;;;;;;;10.00;4.70;;;;;;;2.76;59.83;97811.13;4970389;28;20587;-64
2022/12/13 11:08:46;;;;;;;8.23;4.20;;;;;;;2.74;59.19;97805.28;4999834;28;20038;-63
2022/12/13 11:11:16;;;;;;;8.50;4.32;;;;;;;2.76;59.85;97805.97;4998653;28;20026;-64
2022/12/13 11:14:06;;;;;;;9.43;4.85;;;;;;;2.47;59.57;97751.69;4971648;28;20136;-61
2022/12/13 11:16:34;;;;;;;8.80;4.68;;;;;;;2.82;58.94;97804.69;4997285;28;20042;-63
2022/12/13 11:19:03;;;;;;;8.30;4.47;;;;;;;2.82;57.42;97797.00;4978389;28;20108;-64
2022/12/13 11:21:32;;;;;;;7.35;3.67;;;;;;;2.65;56.57;97788.00;4979940;28;20042;-62
2022/12/13 11:24:01;;;;;;;8.25;4.22;;;;;;;2.87;57.25;97800.03;5013711;28;20029;-63
2022/12/13 11:26:27;;;;;;;8.93;4.73;;;;;;;2.77;57.38;97788.81;4980014;28;20037;-60
2022/12/13 11:29:11;;;;;;;8.63;4.18;;;;;;;2.86;58.00;97801.78;4998945;28;20525;-62
2022/12/13 11:31:58;;;;;;;8.90;4.40;;;;;;;3.00;58.15;97799.94;4997902;28;20033;-62
2022/12/13 11:34:44;;;;;;;9.10;4.43;;;;;;;3.03;58.23;97802.25;5004277;28;20281;-62
2022/12/13 11:37:19;;;;;;;8.93;3.70;;;;;;;3.04;58.43;97784.16;4997202;28;20032;-61
2022/12/13 11:39:49;;;;;;;9.18;4.18;;;;;;;2.84;57.62;97739.44;5011479;28;20033;-61
2022/12/13 11:42:20;;;;;;;8.07;4.03;;;;;;;3.15;58.14;97779.94;5012189;28;20113;-59